Time;durP1;ratioP1;P1;durP2;ratioP2;P2;SDS_P1;SDS_P2;PMS_P1;PMS_P2;Temp;Humidity;BMP_temperature;BMP_pressure;BME280_temperature;BME280_humidity;BME280_pressure;Samples;Min_cycle;Max_cycle;Signal;HPM_P1;HPM_P2
2021/03/16 00:00:12;;;;;;;23.98;8.75;;;10.30;99.90;;;;;;4983941;28;20046;-88
2021/03/16 00:02:39;;;;;;;19.70;9.20;;;10.30;99.90;;;;;;4986048;28;20053;-88
2021/03/16 00:05:08;;;;;;;21.80;9.63;;;10.30;99.90;;;;;;4991572;28;20054;-87
2021/03/16 00:07:35;;;;;;;23.85;9.63;;;10.30;99.90;;;;;;4991612;28;20103;-87
2021/03/16 00:10:02;;;;;;;26.88;10.55;;;10.30;99.90;;;;;;4991087;28;20049;-87
2021/03/16 00:12:29;;;;;;;28.45;10.80;;;10.30;99.90;;;;;;5038048;28;20060;-88
2021/03/16 00:14:55;;;;;;;23.73;10.13;;;10.30;99.90;;;;;;5010312;28;20046;-88
2021/03/16 00:17:22;;;;;;;24.58;10.95;;;10.30;99.90;;;;;;5004147;28;20046;-88
2021/03/16 00:19:49;;;;;;;33.13;11.50;;;10.30;99.90;;;;;;5009293;28;20050;-87
2021/03/16 00:22:16;;;;;;;25.02;10.65;;;10.30;99.90;;;;;;5006626;28;20117;-88
2021/03/16 00:24:43;;;;;;;24.75;10.52;;;10.30;99.90;;;;;;5006742;28;20054;-87
2021/03/16 00:27:09;;;;;;;18.60;10.65;;;10.30;99.90;;;;;;5005641;28;20545;-87
2021/03/16 00:29:36;;;;;;;23.52;10.15;;;10.30;99.90;;;;;;5004924;28;20061;-88
2021/03/16 00:32:03;;;;;;;21.33;9.45;;;10.30;99.90;;;;;;5008040;28;20066;-87
2021/03/16 00:34:30;;;;;;;20.58;9.43;;;10.30;99.90;;;;;;5004637;28;20128;-88
2021/03/16 00:36:57;;;;;;;26.42;9.95;;;10.30;99.90;;;;;;5005907;28;20066;-87
2021/03/16 00:39:23;;;;;;;22.45;9.40;;;10.30;99.90;;;;;;5009904;28;25068;-86
2021/03/16 00:41:50;;;;;;;29.65;9.70;;;10.30;99.90;;;;;;5007936;28;20053;-86
2021/03/16 00:44:17;;;;;;;22.98;8.82;;;10.30;99.90;;;;;;5002070;28;20045;-86
2021/03/16 00:46:44;;;;;;;41.80;9.98;;;10.30;99.90;;;;;;5009195;28;20088;-85
2021/03/16 00:49:12;;;;;;;28.92;8.63;;;10.30;99.90;;;;;;5007113;28;20145;-86
2021/03/16 00:51:39;;;;;;;27.83;7.40;;;10.30;99.90;;;;;;5009669;28;20042;-85
2021/03/16 00:54:05;;;;;;;19.10;7.63;;;10.30;99.90;;;;;;5022887;28;20384;-85
2021/03/16 00:56:32;;;;;;;20.27;7.30;;;10.30;99.90;;;;;;5009407;28;20049;-85
2021/03/16 00:58:59;;;;;;;18.10;6.90;;;10.30;99.90;;;;;;5002379;28;20245;-85
2021/03/16 01:01:26;;;;;;;28.08;7.03;;;10.30;99.90;;;;;;5009313;28;20046;-85
2021/03/16 01:03:53;;;;;;;15.80;6.10;;;10.30;99.90;;;;;;5011016;28;20564;-85
2021/03/16 01:06:19;;;;;;;25.02;5.90;;;10.30;99.90;;;;;;5007191;28;20045;-86
2021/03/16 01:08:46;;;;;;;21.08;5.80;;;10.30;99.90;;;;;;5006381;28;20045;-88
2021/03/16 01:11:12;;;;;;;13.75;4.97;;;10.20;99.90;;;;;;4996527;28;20049;-87
2021/03/16 01:13:39;;;;;;;13.55;4.90;;;10.20;99.90;;;;;;4995064;28;20049;-87
2021/03/16 01:16:07;;;;;;;9.70;3.80;;;10.20;99.90;;;;;;5000501;28;20061;-87
2021/03/16 01:18:33;;;;;;;9.20;4.43;;;10.20;99.90;;;;;;5004833;28;20068;-87
2021/03/16 01:21:00;;;;;;;9.77;3.55;;;10.20;99.90;;;;;;4993980;28;20057;-87
2021/03/16 01:23:27;;;;;;;5.55;3.10;;;10.20;99.90;;;;;;4991135;28;20044;-85
2021/03/16 01:26:06;;;;;;;8.82;3.22;;;10.20;99.90;;;;;;5002330;28;20057;-87
2021/03/16 01:28:34;;;;;;;5.63;2.83;;;10.20;99.90;;;;;;4988946;28;20042;-87
2021/03/16 01:31:02;;;;;;;8.38;3.22;;;10.20;99.90;;;;;;4992378;28;20060;-87
2021/03/16 01:33:30;;;;;;;6.47;2.95;;;10.20;99.90;;;;;;4986142;28;20050;-87
2021/03/16 01:35:56;;;;;;;7.20;3.25;;;10.20;99.90;;;;;;4991306;28;20273;-87
2021/03/16 01:38:23;;;;;;;9.05;2.95;;;10.10;99.90;;;;;;4991988;28;20128;-86
2021/03/16 01:40:50;;;;;;;12.63;3.17;;;10.20;99.90;;;;;;4999342;28;20056;-86
2021/03/16 01:43:23;;;;;;;13.15;3.25;;;10.10;99.90;;;;;;4994763;28;20384;-86
2021/03/16 01:45:50;;;;;;;17.95;3.58;;;10.20;99.90;;;;;;5004030;28;20053;-85
2021/03/16 01:48:27;;;;;;;19.23;3.88;;;10.20;99.90;;;;;;4998458;28;20472;-86
2021/03/16 01:50:53;;;;;;;28.25;3.83;;;10.20;99.90;;;;;;5000329;28;20042;-86
2021/03/16 01:53:21;;;;;;;25.38;4.00;;;10.20;99.90;;;;;;5000945;28;20041;-86
2021/03/16 01:55:49;;;;;;;37.13;5.18;;;10.20;99.90;;;;;;4995373;28;20058;-86
2021/03/16 01:58:16;;;;;;;27.33;4.28;;;10.20;99.90;;;;;;5003233;28;20038;-86
2021/03/16 02:00:44;;;;;;;21.02;3.88;;;10.20;99.90;;;;;;5000553;28;20046;-86
2021/03/16 02:03:12;;;;;;;17.58;3.88;;;10.20;99.90;;;;;;4995725;28;20042;-85
2021/03/16 02:05:43;;;;;;;10.15;2.90;;;10.20;99.90;;;;;;4998852;28;20072;-85
2021/03/16 02:08:22;;;;;;;7.82;2.53;;;10.20;99.90;;;;;;4999311;28;20042;-86
2021/03/16 02:11:05;;;;;;;6.50;2.60;;;10.30;99.90;;;;;;5004042;28;20064;-86
2021/03/16 02:14:08;;;;;;;6.18;2.33;;;10.20;99.90;;;;;;4980513;28;20047;-85
2021/03/16 02:16:40;;;;;;;5.28;2.10;;;10.30;99.90;;;;;;4985782;28;20045;-86
2021/03/16 02:19:22;;;;;;;5.28;2.00;;;10.20;99.90;;;;;;4992237;28;20053;-84
2021/03/16 02:21:50;;;;;;;4.85;2.15;;;10.30;99.90;;;;;;4995310;28;20056;-86
2021/03/16 02:25:05;;;;;;;6.87;2.87;;;10.30;99.90;;;;;;4994100;28;20057;-86
2021/03/16 02:28:00;;;;;;;6.18;3.22;;;10.30;99.90;;;;;;4932557;29;20052;-85
2021/03/16 02:30:28;;;;;;;6.75;3.22;;;10.30;99.90;;;;;;4933354;29;20047;-85
2021/03/16 02:32:55;;;;;;;7.67;3.57;;;10.30;99.90;;;;;;4916402;29;20048;-85
2021/03/16 02:35:23;;;;;;;9.57;3.80;;;10.30;99.90;;;;;;4913962;29;20292;-86
2021/03/16 02:37:54;;;;;;;9.40;3.83;;;10.30;99.90;;;;;;4914504;29;20103;-85
2021/03/16 02:40:24;;;;;;;9.73;3.47;;;10.30;99.90;;;;;;4928191;29;20059;-85
2021/03/16 02:42:51;;;;;;;9.43;3.55;;;10.30;99.90;;;;;;4919976;29;20472;-86
2021/03/16 02:45:17;;;;;;;6.88;3.25;;;10.30;99.90;;;;;;4935124;29;20128;-86
2021/03/16 02:47:45;;;;;;;6.38;3.50;;;10.30;99.90;;;;;;4919740;29;20048;-85
2021/03/16 02:50:14;;;;;;;6.60;3.30;;;10.30;99.90;;;;;;4920209;29;20051;-85
2021/03/16 02:52:54;;;;;;;13.60;4.00;;;10.30;99.90;;;;;;4920748;29;20434;-85
2021/03/16 02:55:23;;;;;;;12.52;4.20;;;10.30;99.90;;;;;;4932453;29;20056;-86
2021/03/16 02:57:51;;;;;;;20.58;4.38;;;10.30;99.90;;;;;;4924020;29;20047;-85
2021/03/16 03:00:18;;;;;;;25.52;4.68;;;10.30;99.90;;;;;;4936681;29;20051;-85
2021/03/16 03:02:47;;;;;;;20.17;4.82;;;10.30;99.90;;;;;;4931850;28;20045;-86
2021/03/16 03:05:15;;;;;;;23.35;4.03;;;10.30;99.90;;;;;;4999242;28;20034;-86
2021/03/16 03:07:42;;;;;;;14.32;4.20;;;10.30;99.90;;;;;;4993971;28;20137;-86
2021/03/16 03:10:09;;;;;;;10.25;4.00;;;10.30;99.90;;;;;;5006454;28;20483;-85
2021/03/16 03:12:36;;;;;;;13.57;3.75;;;10.30;99.90;;;;;;5014663;28;20056;-86
2021/03/16 03:15:08;;;;;;;10.80;4.10;;;10.30;99.90;;;;;;5015408;28;20486;-86
2021/03/16 03:17:36;;;;;;;8.52;4.25;;;10.30;99.90;;;;;;5006877;28;20495;-86
2021/03/16 03:20:09;;;;;;;9.27;4.10;;;10.30;99.90;;;;;;5012811;28;20041;-85
2021/03/16 03:22:51;;;;;;;13.88;4.32;;;10.30;99.90;;;;;;5012134;28;20048;-85
2021/03/16 03:25:26;;;;;;;10.77;4.15;;;10.30;99.90;;;;;;5009665;28;20084;-86
2021/03/16 03:27:59;;;;;;;9.57;4.88;;;10.30;99.90;;;;;;5013716;28;20437;-86
2021/03/16 03:30:26;;;;;;;9.93;4.47;;;10.30;99.90;;;;;;5029901;28;20051;-86
2021/03/16 03:32:59;;;;;;;11.52;4.47;;;10.30;99.90;;;;;;5013670;28;20056;-86
2021/03/16 03:35:29;;;;;;;10.98;4.93;;;10.20;99.90;;;;;;5007715;28;20093;-87
2021/03/16 03:37:57;;;;;;;11.25;4.90;;;10.30;99.90;;;;;;5010267;28;20068;-88
2021/03/16 03:40:26;;;;;;;10.93;4.40;;;10.20;99.90;;;;;;5010766;28;20902;-87
2021/03/16 03:42:58;;;;;;;8.57;3.92;;;10.30;99.90;;;;;;5008723;28;20045;-87
2021/03/16 03:45:29;;;;;;;11.05;4.25;;;10.30;99.90;;;;;;5010440;28;20052;-88
2021/03/16 03:47:58;;;;;;;9.95;4.13;;;10.20;99.90;;;;;;5007930;28;20513;-87
2021/03/16 03:50:25;;;;;;;;;;;10.20;99.90;;;;;;5018900;28;20056;-86
2021/03/16 03:52:54;;;;;;;9.55;3.90;;;10.20;99.90;;;;;;5011042;28;20835;-87
2021/03/16 03:55:22;;;;;;;17.77;4.38;;;10.30;99.90;;;;;;5002548;28;20062;-88
2021/03/16 03:57:55;;;;;;;12.23;4.45;;;10.20;99.90;;;;;;5013043;28;20129;-87
2021/03/16 04:00:22;;;;;;;16.02;4.47;;;10.30;99.90;;;;;;5027240;28;20044;-85
2021/03/16 04:02:51;;;;;;;31.75;4.30;;;10.30;99.90;;;;;;5006208;28;20053;-85
2021/03/16 04:05:19;;;;;;;33.13;4.35;;;10.20;99.90;;;;;;5018438;28;20095;-87
2021/03/16 04:07:47;;;;;;;34.83;4.25;;;10.30;99.90;;;;;;5028989;28;20049;-87
2021/03/16 04:10:15;;;;;;;31.00;3.85;;;10.30;99.90;;;;;;5010271;28;20057;-87
2021/03/16 04:12:43;;;;;;;;;;;10.30;99.90;;;;;;5009774;28;20041;-84
2021/03/16 04:15:12;;;;;;;103.90;5.68;;;10.30;99.90;;;;;;5009263;28;19921;-86
2021/03/16 04:17:40;;;;;;;75.70;5.35;;;10.20;99.90;;;;;;5011192;28;20053;-87
2021/03/16 04:20:08;;;;;;;69.63;6.18;;;10.30;99.90;;;;;;5001701;28;20053;-87
2021/03/16 04:22:36;;;;;;;133.95;6.60;;;10.20;99.90;;;;;;5011341;28;20052;-87
2021/03/16 04:25:04;;;;;;;127.45;6.90;;;10.20;99.90;;;;;;5010302;28;20479;-87
2021/03/16 04:27:31;;;;;;;142.13;8.38;;;10.20;99.90;;;;;;5022054;28;20041;-87
2021/03/16 04:29:58;;;;;;;133.77;7.30;;;10.20;99.90;;;;;;5014508;28;20045;-87
2021/03/16 04:32:24;;;;;;;87.38;6.70;;;10.20;99.90;;;;;;5003428;28;20408;-88
2021/03/16 04:34:52;;;;;;;94.72;6.47;;;10.20;99.90;;;;;;5000099;28;20569;-88
2021/03/16 04:37:18;;;;;;;108.50;8.65;;;10.20;99.90;;;;;;5010159;28;20099;-87
2021/03/16 04:39:45;;;;;;;105.72;7.53;;;10.20;99.90;;;;;;5014977;28;20040;-87
2021/03/16 04:42:12;;;;;;;67.78;6.13;;;10.20;99.90;;;;;;5004042;28;20050;-87
2021/03/16 04:44:39;;;;;;;88.13;7.88;;;10.20;99.90;;;;;;5007368;28;20049;-87
2021/03/16 04:47:05;;;;;;;87.97;7.18;;;10.20;99.90;;;;;;5007371;28;20050;-88
2021/03/16 04:49:32;;;;;;;130.85;8.07;;;10.20;99.90;;;;;;5012836;28;20042;-87
2021/03/16 04:51:58;;;;;;;125.50;7.50;;;10.20;99.90;;;;;;5009910;28;20045;-87
2021/03/16 04:54:26;;;;;;;173.77;8.25;;;10.20;99.90;;;;;;5011280;28;20041;-87
2021/03/16 04:56:53;;;;;;;140.10;7.85;;;10.20;99.90;;;;;;5008329;28;20064;-87
2021/03/16 04:59:20;;;;;;;170.27;8.20;;;10.20;99.90;;;;;;5010873;28;20128;-87
2021/03/16 05:01:47;;;;;;;104.70;7.45;;;10.20;99.90;;;;;;5012095;28;20061;-87
2021/03/16 05:04:15;;;;;;;145.88;8.88;;;10.20;99.90;;;;;;4996782;28;20037;-87
2021/03/16 05:06:42;;;;;;;65.18;7.45;;;10.20;99.90;;;;;;5012993;28;20386;-87
2021/03/16 05:09:08;;;;;;;48.67;6.90;;;10.20;99.90;;;;;;5012491;28;20057;-87
2021/03/16 05:11:36;;;;;;;50.40;7.47;;;10.20;99.90;;;;;;5012494;28;20050;-87
2021/03/16 05:14:02;;;;;;;38.25;7.03;;;10.20;99.90;;;;;;5016681;28;20056;-87
2021/03/16 05:16:31;;;;;;;56.40;6.88;;;10.20;99.90;;;;;;5014609;28;20411;-87
2021/03/16 05:18:58;;;;;;;31.58;7.38;;;10.20;99.90;;;;;;5017029;28;20049;-87
2021/03/16 05:21:25;;;;;;;32.75;6.78;;;10.20;99.90;;;;;;5032616;28;20045;-87
2021/03/16 05:23:51;;;;;;;28.25;6.38;;;10.20;99.90;;;;;;5015546;28;20052;-87
2021/03/16 05:26:18;;;;;;;30.70;6.55;;;10.20;99.90;;;;;;5016716;28;20498;-87
2021/03/16 05:29:01;;;;;;;41.92;6.32;;;10.20;99.90;;;;;;5019652;28;20513;-87
2021/03/16 05:31:28;;;;;;;45.78;6.00;;;10.20;99.90;;;;;;5017197;28;20475;-87
2021/03/16 05:33:55;;;;;;;48.22;7.28;;;10.20;99.90;;;;;;5014701;28;20491;-89
2021/03/16 05:36:22;;;;;;;40.58;5.80;;;10.20;99.90;;;;;;5013735;28;20368;-88
2021/03/16 05:38:48;;;;;;;35.80;5.40;;;10.20;99.90;;;;;;5008264;28;20073;-87
2021/03/16 05:41:16;;;;;;;43.45;5.47;;;10.20;99.90;;;;;;5010716;28;20058;-87
2021/03/16 05:43:47;;;;;;;33.60;5.35;;;10.20;99.90;;;;;;5012519;28;20266;-86
2021/03/16 05:46:16;;;;;;;54.05;5.55;;;10.20;99.90;;;;;;5014408;28;22760;-85
2021/03/16 05:48:49;;;;;;;30.05;5.80;;;10.20;99.90;;;;;;5012592;28;20187;-87
2021/03/16 05:51:17;;;;;;;18.15;4.57;;;10.20;99.90;;;;;;5026155;28;20046;-87
2021/03/16 05:53:50;;;;;;;16.40;4.95;;;10.10;99.90;;;;;;5011401;28;20076;-87
2021/03/16 05:56:17;;;;;;;14.52;4.70;;;10.10;99.90;;;;;;5011250;28;20061;-87
2021/03/16 05:58:44;;;;;;;16.80;5.85;;;10.10;99.90;;;;;;5002274;28;20041;-87
2021/03/16 06:01:13;;;;;;;18.58;5.63;;;10.10;99.90;;;;;;5011938;28;20050;-87
2021/03/16 06:03:39;;;;;;;;;;;10.10;99.90;;;;;;5033445;28;20033;-87
2021/03/16 06:06:08;;;;;;;18.88;5.82;;;10.10;99.90;;;;;;5009939;28;20430;-87
2021/03/16 06:08:35;;;;;;;16.52;5.63;;;10.10;99.90;;;;;;5016810;28;20053;-87
2021/03/16 06:11:01;;;;;;;18.27;6.68;;;10.10;99.90;;;;;;5010350;28;20041;-87
2021/03/16 06:13:28;;;;;;;20.92;6.00;;;10.10;99.90;;;;;;5013479;28;20045;-86
2021/03/16 06:15:54;;;;;;;16.70;5.75;;;10.00;99.90;;;;;;5015013;28;20503;-86
2021/03/16 06:18:29;;;;;;;24.85;6.70;;;10.00;99.90;;;;;;5012187;28;20383;-87
2021/03/16 06:21:03;;;;;;;14.57;5.70;;;10.00;99.90;;;;;;5015787;28;20387;-87
2021/03/16 06:23:32;;;;;;;17.30;6.30;;;10.00;99.90;;;;;;5013132;28;20052;-86
2021/03/16 06:26:00;;;;;;;27.15;7.80;;;10.00;99.90;;;;;;5012119;28;20050;-87
2021/03/16 06:28:36;;;;;;;30.85;7.43;;;10.00;99.90;;;;;;4999612;28;20360;-87
2021/03/16 06:31:04;;;;;;;36.97;7.57;;;10.00;99.90;;;;;;5013493;28;20563;-86
2021/03/16 06:33:32;;;;;;;38.00;9.15;;;10.00;99.90;;;;;;5012667;28;20057;-86
2021/03/16 06:36:05;;;;;;;41.53;8.02;;;10.00;99.90;;;;;;5014674;28;20042;-86
2021/03/16 06:38:32;;;;;;;25.13;6.55;;;10.10;99.90;;;;;;5013492;28;20103;-86
2021/03/16 06:41:17;;;;;;;26.58;6.05;;;10.10;99.90;;;;;;5010378;28;20053;-86
2021/03/16 06:43:56;;;;;;;29.20;6.53;;;10.10;99.90;;;;;;5010776;28;20041;-86
2021/03/16 06:46:36;;;;;;;28.02;6.28;;;10.10;99.90;;;;;;5012831;28;20054;-86
2021/03/16 06:49:17;;;;;;;29.02;6.72;;;10.10;99.90;;;;;;5013141;28;20121;-87
2021/03/16 06:51:45;;;;;;;33.78;7.18;;;10.10;99.90;;;;;;5013304;28;20383;-87
2021/03/16 06:54:17;;;;;;;29.90;6.78;;;10.10;99.90;;;;;;5014439;28;20049;-87
2021/03/16 06:56:51;;;;;;;28.15;7.28;;;10.10;99.90;;;;;;5009684;28;20037;-86
2021/03/16 06:59:25;;;;;;;29.25;6.78;;;10.10;99.90;;;;;;5016033;28;20049;-84
2021/03/16 07:01:52;;;;;;;25.27;7.40;;;10.10;99.90;;;;;;5043345;28;20052;-87
2021/03/16 07:04:24;;;;;;;26.50;6.70;;;10.10;99.90;;;;;;5012401;28;20080;-86
2021/03/16 07:06:52;;;;;;;21.73;7.20;;;10.10;99.90;;;;;;5015845;28;20053;-87
2021/03/16 07:09:20;;;;;;;23.77;6.63;;;10.10;99.90;;;;;;5000965;28;20065;-87
2021/03/16 07:11:51;;;;;;;23.83;7.05;;;10.20;99.90;;;;;;5010151;28;20042;-86
2021/03/16 07:14:20;;;;;;;16.98;5.28;;;10.10;99.90;;;;;;5011978;28;20471;-87
2021/03/16 07:16:49;;;;;;;12.27;4.95;;;10.10;99.90;;;;;;5013280;28;20073;-86
2021/03/16 07:19:17;;;;;;;14.88;5.07;;;10.10;99.90;;;;;;5005215;28;20474;-86
2021/03/16 07:21:52;;;;;;;17.80;5.95;;;10.10;99.90;;;;;;5012826;28;20052;-86
2021/03/16 07:24:22;;;;;;;34.85;5.93;;;10.20;99.90;;;;;;5013082;28;20041;-86
2021/03/16 07:26:49;;;;;;;34.97;5.88;;;10.20;99.90;;;;;;5011647;28;20107;-86
2021/03/16 07:29:17;;;;;;;25.65;6.03;;;10.20;99.90;;;;;;5006690;28;20054;-86
2021/03/16 07:32:03;;;;;;;28.33;7.72;;;10.20;99.90;;;;;;5002698;28;20646;-86
2021/03/16 07:34:31;;;;;;;30.42;8.73;;;10.20;99.90;;;;;;4995480;28;20136;-86
2021/03/16 07:37:00;;;;;;;56.80;10.73;;;10.20;99.90;;;;;;5011427;28;20037;-87
2021/03/16 07:39:29;;;;;;;59.78;9.95;;;10.20;99.90;;;;;;5012616;28;20564;-86
2021/03/16 07:41:56;;;;;;;44.50;9.15;;;10.20;99.90;;;;;;5012677;28;20049;-86
2021/03/16 07:44:22;;;;;;;44.53;8.63;;;10.20;99.90;;;;;;5010536;28;20045;-86
2021/03/16 07:46:53;;;;;;;45.50;8.95;;;10.20;99.90;;;;;;5011742;28;20127;-86
2021/03/16 07:49:34;;;;;;;24.25;8.00;;;10.10;99.90;;;;;;5009651;28;20037;-86
2021/03/16 07:52:03;;;;;;;17.42;6.10;;;10.10;99.90;;;;;;5010873;28;20095;-86
2021/03/16 07:54:39;;;;;;;16.98;5.43;;;10.10;99.90;;;;;;5011737;28;20041;-86
2021/03/16 07:57:06;;;;;;;18.58;5.40;;;10.00;99.90;;;;;;5010993;28;20050;-85
2021/03/16 07:59:37;;;;;;;23.25;5.65;;;10.00;99.90;;;;;;5011854;28;20048;-86
2021/03/16 08:02:06;;;;;;;17.45;4.82;;;10.00;99.90;;;;;;5010624;28;20053;-86
2021/03/16 08:04:36;;;;;;;16.02;4.88;;;9.90;99.90;;;;;;5013497;28;20408;-87
2021/03/16 08:07:07;;;;;;;30.77;5.55;;;9.90;99.90;;;;;;5011851;28;20052;-86
2021/03/16 08:09:52;;;;;;;26.52;4.97;;;9.90;99.90;;;;;;5011234;28;20045;-86
2021/03/16 08:12:28;;;;;;;19.23;5.00;;;9.90;99.90;;;;;;5026950;28;20049;-86
2021/03/16 08:15:09;;;;;;;76.00;5.00;;;9.90;99.90;;;;;;5013050;28;20046;-85
2021/03/16 08:17:35;;;;;;;23.63;4.45;;;9.90;99.90;;;;;;5007698;28;20038;-85
2021/03/16 08:20:04;;;;;;;43.67;4.60;;;9.90;99.90;;;;;;5010526;28;20045;-85
2021/03/16 08:22:31;;;;;;;32.90;4.00;;;9.90;99.90;;;;;;5026051;28;20041;-86
2021/03/16 08:25:06;;;;;;;34.45;4.15;;;9.90;99.90;;;;;;5011664;28;20053;-86
2021/03/16 08:27:34;;;;;;;5.65;3.20;;;9.90;99.90;;;;;;5011970;28;20045;-85
2021/03/16 08:30:08;;;;;;;5.70;3.43;;;9.90;99.90;;;;;;5011737;28;20105;-85
2021/03/16 08:32:37;;;;;;;11.73;4.45;;;10.00;99.90;;;;;;5008850;28;20136;-86
2021/03/16 08:35:05;;;;;;;37.80;6.93;;;10.00;99.90;;;;;;5009098;28;20049;-85
2021/03/16 08:37:36;;;;;;;61.58;7.35;;;10.10;99.90;;;;;;5012436;28;20042;-86
2021/03/16 08:40:24;;;;;;;46.30;7.28;;;10.10;99.90;;;;;;4998500;28;20057;-86
2021/03/16 08:42:51;;;;;;;120.78;9.75;;;10.20;99.90;;;;;;5020720;28;20565;-86
2021/03/16 08:45:31;;;;;;;48.53;7.82;;;10.20;99.90;;;;;;5011305;28;20050;-86
2021/03/16 08:47:58;;;;;;;65.82;9.40;;;10.30;99.90;;;;;;5012849;28;20042;-86
2021/03/16 08:50:25;;;;;;;101.40;9.40;;;10.30;99.90;;;;;;5012168;28;20044;-86
2021/03/16 08:52:52;;;;;;;66.45;8.90;;;10.30;99.90;;;;;;5015862;28;20136;-85
2021/03/16 08:55:26;;;;;;;70.20;9.05;;;10.30;99.90;;;;;;5015945;28;20042;-86
2021/03/16 08:57:54;;;;;;;52.90;9.48;;;10.40;99.90;;;;;;5016506;28;20046;-86
2021/03/16 09:00:27;;;;;;;44.53;8.80;;;10.40;99.90;;;;;;5033020;28;20053;-86
2021/03/16 09:02:54;;;;;;;37.05;8.77;;;10.40;99.90;;;;;;5009576;28;20060;-86
2021/03/16 09:05:27;;;;;;;33.70;8.93;;;10.50;99.90;;;;;;5014838;28;20040;-86
2021/03/16 09:07:58;;;;;;;37.00;9.27;;;10.50;99.90;;;;;;5022339;28;20402;-85
2021/03/16 09:10:26;;;;;;;32.95;8.60;;;10.60;99.90;;;;;;5013859;28;20372;-86
2021/03/16 09:12:53;;;;;;;25.15;9.13;;;10.60;99.90;;;;;;5013609;28;20515;-86
2021/03/16 09:15:21;;;;;;;23.60;8.88;;;10.70;99.90;;;;;;5015361;28;20538;-85
2021/03/16 09:17:53;;;;;;;25.65;8.45;;;10.70;99.90;;;;;;5012492;28;20045;-86
2021/03/16 09:20:21;;;;;;;28.25;9.43;;;10.80;99.90;;;;;;5009828;28;20050;-86
2021/03/16 09:22:57;;;;;;;30.65;9.68;;;10.80;99.90;;;;;;5020855;28;20049;-85
2021/03/16 09:25:28;;;;;;;23.13;9.60;;;10.90;99.90;;;;;;5013373;28;20054;-85
2021/03/16 09:28:03;;;;;;;24.52;9.48;;;10.90;99.90;;;;;;5018916;28;20069;-86
2021/03/16 09:30:39;;;;;;;22.85;7.97;;;11.00;99.90;;;;;;5031483;28;20042;-86
2021/03/16 09:33:09;;;;;;;25.48;9.20;;;11.00;99.90;;;;;;5014601;28;20056;-85
2021/03/16 09:35:36;;;;;;;25.35;8.68;;;11.00;99.90;;;;;;5017129;28;20041;-86
2021/03/16 09:38:06;;;;;;;19.15;8.95;;;11.10;99.90;;;;;;5015384;28;20045;-86
2021/03/16 09:40:39;;;;;;;20.23;7.57;;;11.20;99.90;;;;;;5013871;28;20049;-86
2021/03/16 09:43:31;;;;;;;26.25;8.02;;;11.30;99.90;;;;;;5011546;28;20471;-86
2021/03/16 09:45:59;;;;;;;19.17;7.82;;;11.30;99.90;;;;;;5021798;28;20099;-86
2021/03/16 09:48:27;;;;;;;15.85;7.45;;;11.20;99.90;;;;;;5014158;28;20061;-86
2021/03/16 09:50:56;;;;;;;16.67;7.93;;;11.30;99.90;;;;;;5014153;28;20045;-85
2021/03/16 09:53:23;;;;;;;21.73;7.63;;;11.30;99.90;;;;;;5013581;28;20049;-86
2021/03/16 09:56:01;;;;;;;14.50;7.55;;;11.30;99.90;;;;;;5014268;28;20188;-85
2021/03/16 09:58:30;;;;;;;13.40;7.70;;;11.40;99.90;;;;;;4999570;28;20045;-86
2021/03/16 10:01:00;;;;;;;13.95;7.18;;;11.50;99.90;;;;;;5014710;28;20372;-86
2021/03/16 10:03:27;;;;;;;14.82;6.78;;;11.60;99.90;;;;;;5004458;28;20042;-86
2021/03/16 10:06:04;;;;;;;10.15;6.30;;;11.70;99.90;;;;;;5012843;28;20049;-86
2021/03/16 10:08:31;;;;;;;9.77;6.30;;;11.70;99.90;;;;;;5013419;28;20041;-86
2021/03/16 10:10:58;;;;;;;11.00;6.50;;;11.70;99.90;;;;;;5010605;28;20053;-86
2021/03/16 10:13:39;;;;;;;11.48;6.65;;;11.70;99.90;;;;;;5012096;28;20049;-85
2021/03/16 10:16:11;;;;;;;10.68;6.63;;;11.80;99.90;;;;;;5012440;28;20137;-85
2021/03/16 10:18:48;;;;;;;10.18;6.47;;;11.90;99.90;;;;;;5012054;28;20049;-85
2021/03/16 10:21:26;;;;;;;9.43;6.63;;;11.90;99.90;;;;;;5012906;28;20140;-86
2021/03/16 10:23:57;;;;;;;8.88;5.82;;;12.00;99.90;;;;;;5005646;28;20069;-86
2021/03/16 10:26:24;;;;;;;9.07;6.55;;;12.00;99.90;;;;;;5005210;28;20435;-86
2021/03/16 10:28:51;;;;;;;9.98;5.72;;;12.10;99.90;;;;;;5015492;28;20411;-86
2021/03/16 10:31:22;;;;;;;9.07;5.13;;;12.10;99.90;;;;;;5013418;28;20037;-86
2021/03/16 10:33:51;;;;;;;7.60;6.05;;;12.10;99.90;;;;;;5011409;28;20056;-86
2021/03/16 10:36:22;;;;;;;7.55;5.60;;;12.20;99.90;;;;;;5011967;28;20534;-86
2021/03/16 10:38:50;;;;;;;7.55;5.72;;;12.20;99.90;;;;;;5013148;28;20056;-86
2021/03/16 10:41:20;;;;;;;9.27;6.22;;;12.20;99.90;;;;;;5015313;28;20116;-86
2021/03/16 10:43:47;;;;;;;9.18;6.00;;;12.30;99.90;;;;;;5013418;28;20347;-86
2021/03/16 10:46:14;;;;;;;9.43;6.70;;;12.40;99.90;;;;;;5012785;28;20546;-86
2021/03/16 10:48:41;;;;;;;8.05;5.72;;;12.40;99.90;;;;;;5011411;28;20037;-86
2021/03/16 10:51:08;;;;;;;8.48;5.28;;;12.30;99.90;;;;;;5011897;28;20050;-86
2021/03/16 10:53:35;;;;;;;7.18;5.55;;;12.30;99.90;;;;;;5004490;28;20129;-86
2021/03/16 10:56:05;;;;;;;12.00;6.05;;;12.40;99.90;;;;;;5013557;28;20045;-86
2021/03/16 10:58:33;;;;;;;10.02;6.05;;;12.50;99.90;;;;;;5013283;28;20049;-86
2021/03/16 11:01:00;;;;;;;6.85;5.30;;;12.50;99.90;;;;;;5013844;28;20044;-86
2021/03/16 11:03:30;;;;;;;12.52;5.80;;;12.50;99.90;;;;;;5008795;28;20356;-86
2021/03/16 11:05:58;;;;;;;8.88;6.10;;;12.50;99.90;;;;;;5007683;28;20057;-86
2021/03/16 11:08:25;;;;;;;10.52;6.30;;;12.50;99.90;;;;;;5000097;28;20467;-86
2021/03/16 11:10:52;;;;;;;10.77;5.40;;;12.50;99.90;;;;;;5008682;28;20045;-86
2021/03/16 11:13:19;;;;;;;8.77;5.00;;;12.40;99.90;;;;;;4991971;28;20137;-86
2021/03/16 11:15:48;;;;;;;11.43;5.05;;;12.50;99.90;;;;;;4990287;28;20045;-86
2021/03/16 11:18:15;;;;;;;9.93;5.03;;;12.50;99.90;;;;;;4993040;28;20136;-86
2021/03/16 11:20:42;;;;;;;6.03;4.13;;;12.50;99.90;;;;;;4994752;28;20095;-86
2021/03/16 11:23:08;;;;;;;9.15;4.20;;;12.60;99.90;;;;;;4989434;28;20050;-86
2021/03/16 11:25:35;;;;;;;7.95;3.63;;;12.60;99.90;;;;;;4995795;28;20539;-86
2021/03/16 11:28:02;;;;;;;7.10;3.72;;;12.50;99.90;;;;;;4992238;28;20095;-86
2021/03/16 11:30:31;;;;;;;10.55;3.53;;;12.60;99.90;;;;;;4993403;28;20045;-86
2021/03/16 11:32:58;;;;;;;7.40;4.22;;;12.60;99.90;;;;;;4990654;28;20077;-86
2021/03/16 11:35:25;;;;;;;8.48;3.95;;;12.60;99.90;;;;;;4990674;28;20119;-86
2021/03/16 11:37:51;;;;;;;7.05;3.70;;;12.60;99.90;;;;;;4993354;28;20060;-86
2021/03/16 11:40:18;;;;;;;6.15;4.10;;;12.60;99.90;;;;;;4991283;28;20046;-86
2021/03/16 11:42:45;;;;;;;8.98;4.03;;;12.60;99.90;;;;;;4988574;28;20046;-88
2021/03/16 11:45:12;;;;;;;9.13;4.15;;;12.70;99.90;;;;;;4992307;28;20499;-85
2021/03/16 11:47:39;;;;;;;10.23;4.18;;;12.80;99.90;;;;;;4989993;28;20060;-86
2021/03/16 11:50:08;;;;;;;9.95;5.25;;;12.80;99.90;;;;;;4989446;28;20064;-86
2021/03/16 11:52:35;;;;;;;10.70;4.70;;;12.70;99.90;;;;;;4989058;28;20050;-85
2021/03/16 11:55:05;;;;;;;10.55;5.07;;;12.50;99.90;;;;;;4997068;28;20099;-85
2021/03/16 11:57:32;;;;;;;9.50;5.40;;;12.50;99.90;;;;;;4991490;28;20042;-86
2021/03/16 11:59:58;;;;;;;12.27;4.70;;;12.60;99.90;;;;;;4990297;28;20058;-86
2021/03/16 12:02:25;;;;;;;9.23;4.93;;;12.60;99.90;;;;;;4987114;28;20541;-86
2021/03/16 12:04:52;;;;;;;4.78;4.07;;;12.60;99.90;;;;;;4990962;28;20042;-86
2021/03/16 12:07:18;;;;;;;6.38;4.20;;;12.60;99.90;;;;;;4990578;28;20423;-85
2021/03/16 12:09:47;;;;;;;5.47;3.90;;;12.60;99.90;;;;;;4985377;28;20052;-85
2021/03/16 12:12:13;;;;;;;6.25;4.28;;;12.60;99.90;;;;;;5005719;28;20491;-85
2021/03/16 12:14:40;;;;;;;6.38;4.35;;;12.60;99.90;;;;;;4989711;28;20061;-85
2021/03/16 12:17:11;;;;;;;4.30;3.72;;;12.60;99.90;;;;;;4988778;28;20557;-86
2021/03/16 12:19:39;;;;;;;5.90;3.70;;;12.70;99.90;;;;;;4991274;28;20069;-86
2021/03/16 12:22:06;;;;;;;4.63;4.20;;;12.70;99.90;;;;;;5006554;28;20339;-86
2021/03/16 12:24:33;;;;;;;4.35;3.88;;;12.70;99.90;;;;;;4991479;28;20447;-85
2021/03/16 12:26:59;;;;;;;4.82;4.30;;;12.80;99.90;;;;;;4990896;28;20058;-85
2021/03/16 12:29:26;;;;;;;5.28;4.20;;;12.70;99.90;;;;;;4986754;28;20174;-85
2021/03/16 12:31:52;;;;;;;4.15;3.75;;;12.80;99.90;;;;;;4980355;28;20073;-86
2021/03/16 12:34:32;;;;;;;5.38;3.60;;;12.80;99.90;;;;;;5004068;28;20133;-86
2021/03/16 12:36:59;;;;;;;3.95;3.55;;;12.80;99.90;;;;;;4992354;28;20475;-85
2021/03/16 12:39:28;;;;;;;;;;;12.90;99.90;;;;;;4987059;28;20064;-85
2021/03/16 12:41:55;;;;;;;5.35;4.45;;;12.90;99.90;;;;;;4988849;28;19929;-85
2021/03/16 12:44:21;;;;;;;5.53;5.03;;;12.90;99.90;;;;;;4991394;28;20124;-86
2021/03/16 12:46:48;;;;;;;5.00;4.60;;;12.90;99.90;;;;;;4989607;28;20054;-85
2021/03/16 12:49:15;;;;;;;5.00;4.50;;;12.90;99.90;;;;;;4989224;28;20391;-86
2021/03/16 12:51:41;;;;;;;5.38;4.88;;;12.90;99.90;;;;;;4994675;28;20042;-86